Airfield :
LOGIN :

Register | Disclaimer

   EN    FR    IT 

 










Legend :    VFR   Marginal VFR   IFR   Intensive IFR   Very Intensive IFR
Visi :
Ceiling :
>= 8 km
>= 3000ft
5 to 8 km
1000 to 3000 ft
1500m to 5 km
500 to 1000 ft
800 to 1500m
200 to 500 ft
< 800m
< 200 ft
Symbols :   Thunderstorms  Fog  Heavy snow  Heavy precipitations  Wind > 20 kt
SIGMETs :     Misc.  Thunderstorms  Icing  Turbulence  Mountain Waves  Volcanic Ashes






- Airport Elevation : 339 ft
- IATA code : UTI


EFUT - Utti Air Base

CURRENT METAR :
  • 032020Z AUTO 29009KT 260V330 9999 -FZRA OVC023 M00/M05 Q0994

EXPIRED METARs :
  • 031950Z AUTO 29010KT 250V320 9999 -FZRASN OVC025 M00/M05 Q0994
  • 031920Z AUTO 28010KT 240V320 9999 -SHSN OVC021 M00/M05 Q0993
  • 031850Z AUTO 30009KT 250V340 9999 -SHSN OVC022 M00/M04 Q0992
  • 031820Z AUTO 31009KT 270V350 9999 -SHSN OVC040 00/M04 Q0991
  • 031750Z AUTO 30012KT 9999 -SHRA OVC027 00/M05 Q0991

Expired Forecast.



MET'MAP, your aeronautical weather chart ! - Copyright ORBIFLY December 2007 - Disclaimer

ORBIFLY MET'MAP TEAM :

Programming & Development : Alexandra Zaïnal
Concept & original design : Baudouin d'Aumeries
Assistance for programming : Marc-Olivier Méhu
Technical & hardware support : Manuel Goepfert

Contact : metmap@orbifly.com




SOURCES & CREDITS :

   NOAA